Cleveland, Ohio
Traffic Map
Current Weather Conditions
Cleveland, Ohio
Overcast
Overcast
23°
Feels Like: 9°
Wind Chill: Ceiling: 1000
Heat Index: 23° Visibility: 10mi
Dew Point: 17° Wind: 17mph
Humidity: 78% Direction: 30° (NNE)
Pressure: 29.86in Gusts: 0mph
Raw Report DataKBKL 261553Z 03015KT 10SM OVC010 M05/M08 A2986 RMK AO2 SLP120 T10501083
Traffic Incident Summary
Active as of:
Severity:
Category:
InformationThere was an issue retrieving the traffic information for this location. Please try a different location or try again shortly.
Advertisements
Track Severe Weather on mobile